Time;durP1;ratioP1;P1;durP2;ratioP2;P2;SDS_P1;SDS_P2;PMS_P1;PMS_P2;Temp;Humidity;BMP_temperature;BMP_pressure;BME280_temperature;BME280_humidity;BME280_pressure;Samples;Min_cycle;Max_cycle;Signal;HPM_P1;HPM_P2
2023/01/14 00:00:17;;;;;;;2.40;1.48;;;5.30;99.90;;;;;;5026526;28;20774;-73
2023/01/14 00:02:42;;;;;;;2.78;1.52;;;5.30;99.90;;;;;;5016743;28;20196;-72
2023/01/14 00:05:08;;;;;;;1.58;1.48;;;5.20;99.90;;;;;;5025634;28;20634;-72
2023/01/14 00:07:34;;;;;;;1.80;1.30;;;5.30;99.90;;;;;;5025981;28;20555;-72
2023/01/14 00:10:00;;;;;;;2.88;1.67;;;5.20;99.90;;;;;;5025418;28;20180;-72
2023/01/14 00:12:26;;;;;;;3.42;1.50;;;5.20;99.90;;;;;;5020875;28;20236;-72
2023/01/14 00:14:52;;;;;;;3.85;1.05;;;5.30;99.90;;;;;;5020569;28;20601;-72
2023/01/14 00:17:17;;;;;;;0.85;0.85;;;5.30;99.90;;;;;;5015851;28;20201;-73
2023/01/14 00:19:43;;;;;;;2.20;1.40;;;5.30;99.90;;;;;;5030507;28;20250;-73
2023/01/14 00:22:09;;;;;;;4.03;1.80;;;5.40;99.90;;;;;;5019337;28;20197;-76
2023/01/14 00:24:34;;;;;;;5.18;1.73;;;5.30;99.90;;;;;;5021965;28;20208;-74
2023/01/14 00:27:01;;;;;;;1.88;1.17;;;5.40;99.90;;;;;;5022145;28;20181;-73
2023/01/14 00:29:29;;;;;;;0.98;0.77;;;5.40;99.90;;;;;;5015153;28;20181;-74
2023/01/14 00:31:56;;;;;;;0.82;0.80;;;5.40;99.90;;;;;;5020082;28;20267;-73
2023/01/14 00:34:24;;;;;;;1.90;1.33;;;5.40;99.90;;;;;;5024178;28;20214;-74
2023/01/14 00:36:49;;;;;;;1.52;1.05;;;5.50;99.90;;;;;;5013451;28;20177;-73
2023/01/14 00:39:16;;;;;;;3.55;1.75;;;5.60;99.90;;;;;;5019349;28;20168;-73
2023/01/14 00:41:42;;;;;;;4.43;0.80;;;5.50;99.90;;;;;;5024049;28;20204;-73
2023/01/14 00:44:08;;;;;;;2.35;1.27;;;5.50;99.90;;;;;;5015635;28;20240;-73
2023/01/14 00:46:35;;;;;;;3.90;1.55;;;5.40;99.90;;;;;;5026291;28;20177;-73
2023/01/14 00:49:02;;;;;;;2.10;1.75;;;5.40;99.90;;;;;;5018643;28;20216;-73
2023/01/14 00:51:29;;;;;;;3.03;1.55;;;5.30;99.90;;;;;;5024558;28;20274;-73
2023/01/14 00:53:55;;;;;;;3.55;1.83;;;5.30;99.90;;;;;;5023859;28;20560;-72
2023/01/14 00:56:22;;;;;;;3.90;1.70;;;5.30;99.90;;;;;;5020857;28;20181;-73
2023/01/14 00:58:48;;;;;;;1.48;1.10;;;5.40;99.90;;;;;;5018443;28;20605;-73
2023/01/14 01:01:14;;;;;;;3.20;0.80;;;5.30;99.90;;;;;;5016277;28;20200;-73
2023/01/14 01:03:42;;;;;;;4.47;1.73;;;5.30;99.90;;;;;;5018664;28;20201;-73
2023/01/14 01:06:08;;;;;;;2.20;1.05;;;5.30;99.90;;;;;;5023132;28;20205;-73
2023/01/14 01:08:34;;;;;;;3.58;1.35;;;5.40;99.90;;;;;;5023775;28;20204;-73
2023/01/14 01:11:00;;;;;;;2.90;1.58;;;5.40;99.90;;;;;;5026219;28;20584;-73
2023/01/14 01:13:26;;;;;;;0.82;0.82;;;5.30;99.90;;;;;;5015720;28;20539;-73
2023/01/14 01:15:57;;;;;;;1.70;1.60;;;5.30;99.90;;;;;;5026628;28;20184;-72
2023/01/14 01:18:23;;;;;;;3.08;1.80;;;5.30;99.90;;;;;;5023382;28;20185;-73
2023/01/14 01:20:48;;;;;;;1.92;1.00;;;5.30;99.90;;;;;;5021506;28;20262;-73
2023/01/14 01:23:15;;;;;;;1.30;1.05;;;5.30;99.90;;;;;;5018392;28;20205;-74
2023/01/14 01:25:41;;;;;;;4.05;1.63;;;5.30;99.90;;;;;;5012023;28;20185;-74
2023/01/14 01:28:08;;;;;;;2.20;1.55;;;5.30;99.90;;;;;;5019571;28;20185;-74
2023/01/14 01:30:33;;;;;;;3.10;1.40;;;5.30;99.90;;;;;;5020012;28;20675;-74
2023/01/14 01:33:00;;;;;;;2.47;1.65;;;5.40;99.90;;;;;;5020618;28;20204;-73
2023/01/14 01:35:26;;;;;;;4.65;1.88;;;5.40;99.90;;;;;;5014910;28;20177;-73
2023/01/14 01:37:52;;;;;;;0.70;0.70;;;5.40;99.90;;;;;;5027540;28;20656;-71
2023/01/14 01:40:18;;;;;;;2.53;1.50;;;5.50;99.90;;;;;;5019606;28;20197;-72
2023/01/14 01:42:56;;;;;;;1.95;1.50;;;5.40;99.90;;;;;;5020400;28;20235;-73
2023/01/14 01:45:42;;;;;;;2.55;1.00;;;5.40;99.90;;;;;;5019900;28;20184;-73
2023/01/14 01:48:28;;;;;;;1.95;1.35;;;5.40;99.90;;;;;;5015881;28;20176;-73
2023/01/14 01:50:59;;;;;;;4.60;1.73;;;5.40;99.90;;;;;;5007676;28;20173;-73
2023/01/14 01:53:26;;;;;;;1.15;0.95;;;5.50;99.90;;;;;;5020428;28;20209;-73
2023/01/14 01:55:55;;;;;;;6.13;1.42;;;5.50;99.90;;;;;;5026687;28;20203;-73
2023/01/14 01:58:22;;;;;;;2.17;1.40;;;5.50;99.90;;;;;;5011807;28;20254;-73
2023/01/14 02:00:48;;;;;;;2.63;1.02;;;5.40;99.90;;;;;;5022263;28;20192;-73
2023/01/14 02:03:23;;;;;;;0.90;0.90;;;5.40;99.90;;;;;;5019233;28;20212;-73
2023/01/14 02:05:49;;;;;;;4.38;1.30;;;5.50;99.90;;;;;;5021291;28;20184;-73
2023/01/14 02:08:15;;;;;;;2.45;1.40;;;5.40;99.90;;;;;;5021769;28;20267;-74
2023/01/14 02:11:08;;;;;;;4.28;1.83;;;5.50;99.90;;;;;;5012498;28;20618;-73
2023/01/14 02:14:12;;;;;;;1.60;1.10;;;5.50;99.90;;;;;;5019411;28;20279;-72
2023/01/14 02:16:54;;;;;;;1.45;1.15;;;5.60;99.90;;;;;;5027224;28;20212;-72
2023/01/14 02:19:37;;;;;;;1.15;0.90;;;5.50;99.90;;;;;;5013822;28;20694;-72
2023/01/14 02:22:08;;;;;;;4.55;1.30;;;5.50;99.90;;;;;;5013364;28;20181;-72
2023/01/14 02:25:13;;;;;;;3.17;1.08;;;5.50;99.90;;;;;;5016639;28;20184;-72
2023/01/14 02:27:44;;;;;;;2.30;1.40;;;5.60;99.90;;;;;;5008745;28;20665;-73
2023/01/14 02:30:15;;;;;;;1.23;1.13;;;5.60;99.90;;;;;;5013407;28;20267;-72
2023/01/14 02:32:53;;;;;;;2.20;1.02;;;5.60;99.90;;;;;;5027582;28;20205;-72
2023/01/14 02:35:28;;;;;;;4.85;1.63;;;5.70;99.90;;;;;;5014788;28;20230;-74
2023/01/14 02:37:58;;;;;;;1.00;1.00;;;5.70;99.90;;;;;;5011689;28;20168;-73
2023/01/14 02:40:32;;;;;;;1.27;1.13;;;5.70;99.90;;;;;;5025073;28;20284;-73
2023/01/14 02:46:17;;;;;;;1.17;1.08;;;5.70;99.90;;;;;;5021173;28;20192;-74
2023/01/14 02:48:44;;;;;;;2.08;0.80;;;5.80;99.90;;;;;;5032723;28;20214;-73
2023/01/14 02:51:11;;;;;;;0.55;0.55;;;5.60;99.90;;;;;;5025604;28;20679;-73
2023/01/14 02:53:37;;;;;;;1.67;1.00;;;5.60;99.90;;;;;;5012257;28;20577;-73
2023/01/14 02:56:04;;;;;;;2.05;1.45;;;5.60;99.90;;;;;;5018792;28;20185;-73
2023/01/14 02:58:49;;;;;;;1.02;1.02;;;5.60;99.90;;;;;;5025608;28;20676;-72
2023/01/14 03:01:22;;;;;;;1.10;1.00;;;5.70;99.90;;;;;;5013409;28;20663;-73
2023/01/14 03:03:57;;;;;;;2.15;1.50;;;5.60;99.90;;;;;;5018208;28;20262;-74
2023/01/14 03:06:45;;;;;;;1.83;1.55;;;5.60;99.90;;;;;;5014677;28;20275;-72
2023/01/14 03:09:26;;;;;;;1.67;1.42;;;5.70;99.90;;;;;;5010149;28;20204;-73
2023/01/14 03:12:21;;;;;;;0.70;0.70;;;5.70;99.90;;;;;;5014144;28;20200;-73
2023/01/14 03:14:55;;;;;;;0.75;0.73;;;5.60;99.90;;;;;;5022971;28;20275;-74
2023/01/14 03:17:47;;;;;;;2.38;1.35;;;5.60;99.90;;;;;;5006032;28;20258;-74
2023/01/14 03:20:19;;;;;;;3.70;1.30;;;5.60;99.90;;;;;;5008180;28;20236;-73
2023/01/14 03:22:46;;;;;;;3.58;1.20;;;5.60;99.90;;;;;;5013991;28;20238;-73
2023/01/14 03:25:15;;;;;;;1.00;1.00;;;5.50;99.90;;;;;;5008699;28;20181;-72
2023/01/14 03:27:42;;;;;;;2.03;1.23;;;5.60;99.90;;;;;;5006245;28;20178;-72
2023/01/14 03:30:14;;;;;;;1.65;1.08;;;5.60;99.90;;;;;;5008196;28;20185;-73
2023/01/14 03:32:44;;;;;;;1.10;0.98;;;5.50;99.90;;;;;;5015956;28;20215;-72
2023/01/14 03:35:15;;;;;;;2.75;0.90;;;5.50;99.90;;;;;;5006278;28;20189;-72
2023/01/14 03:37:48;;;;;;;2.63;1.35;;;5.60;99.90;;;;;;5013878;28;20208;-72
2023/01/14 03:40:15;;;;;;;1.35;0.90;;;5.60;99.90;;;;;;5011666;28;20215;-72
2023/01/14 03:42:49;;;;;;;4.78;1.08;;;5.60;99.90;;;;;;5022659;28;20197;-74
2023/01/14 03:45:23;;;;;;;1.58;0.82;;;5.60;99.90;;;;;;5019781;28;20644;-75
2023/01/14 03:47:48;;;;;;;3.20;1.10;;;5.60;99.90;;;;;;5021485;28;20180;-74
2023/01/14 03:50:19;;;;;;;4.18;1.58;;;5.60;99.90;;;;;;5004110;28;20182;-73
2023/01/14 03:52:59;;;;;;;1.05;1.02;;;5.60;99.90;;;;;;5009069;28;20200;-73
2023/01/14 03:55:46;;;;;;;3.75;1.58;;;5.70;99.90;;;;;;5013926;28;20537;-72
2023/01/14 03:58:39;;;;;;;3.35;1.33;;;5.70;99.90;;;;;;5013654;28;20172;-73
2023/01/14 04:01:27;;;;;;;2.00;1.33;;;5.70;99.90;;;;;;5029969;28;20197;-72
2023/01/14 04:03:54;;;;;;;3.00;0.90;;;5.70;99.90;;;;;;5017276;28;20691;-72
2023/01/14 04:06:20;;;;;;;1.80;1.02;;;5.70;99.90;;;;;;5013430;28;20201;-72
2023/01/14 04:08:46;;;;;;;3.83;1.10;;;5.70;99.90;;;;;;5013160;28;20179;-72
2023/01/14 04:11:11;;;;;;;3.13;1.10;;;5.70;99.90;;;;;;5016263;28;20193;-73
2023/01/14 04:16:21;;;;;;;1.85;1.13;;;5.70;99.90;;;;;;5015063;28;20613;-73
2023/01/14 04:18:46;;;;;;;3.50;1.40;;;5.60;99.90;;;;;;5019489;28;20177;-72
2023/01/14 04:21:12;;;;;;;1.98;1.40;;;5.50;99.90;;;;;;5009765;28;20216;-72
2023/01/14 04:23:37;;;;;;;1.55;1.20;;;5.50;99.90;;;;;;5016887;28;20205;-73
2023/01/14 04:26:03;;;;;;;1.58;1.45;;;5.40;99.90;;;;;;5014699;28;20656;-73
2023/01/14 04:28:29;;;;;;;4.30;1.00;;;5.30;99.90;;;;;;5018408;28;20306;-73
2023/01/14 04:30:54;;;;;;;2.67;1.65;;;5.20;99.90;;;;;;5011449;28;20188;-73
2023/01/14 04:33:21;;;;;;;1.73;1.25;;;5.20;99.90;;;;;;5008419;28;20204;-73
2023/01/14 04:35:50;;;;;;;1.95;1.45;;;5.10;99.90;;;;;;5016738;28;20172;-73
2023/01/14 04:38:17;;;;;;;2.55;1.50;;;5.10;99.90;;;;;;5021798;28;20576;-76
2023/01/14 04:40:43;;;;;;;3.15;1.58;;;4.90;99.90;;;;;;5022621;28;20220;-72
2023/01/14 04:43:08;;;;;;;3.75;1.45;;;4.80;99.90;;;;;;5027689;28;20620;-73
2023/01/14 04:45:35;;;;;;;1.65;1.30;;;4.80;99.90;;;;;;5022150;28;20189;-74
2023/01/14 04:48:02;;;;;;;3.33;1.30;;;4.80;99.90;;;;;;5016769;28;20191;-72
2023/01/14 04:50:30;;;;;;;1.80;0.65;;;4.90;99.90;;;;;;5021010;28;20245;-72
2023/01/14 04:53:02;;;;;;;2.80;1.73;;;4.90;99.90;;;;;;5021825;28;20688;-72
2023/01/14 04:55:28;;;;;;;1.60;1.20;;;4.80;99.90;;;;;;5022916;28;20184;-72
2023/01/14 04:57:53;;;;;;;1.35;1.25;;;4.80;99.90;;;;;;5018103;28;20203;-71
2023/01/14 05:00:19;;;;;;;3.20;1.50;;;4.70;99.90;;;;;;5021918;28;20295;-72
2023/01/14 05:02:45;;;;;;;1.42;1.30;;;4.80;99.90;;;;;;5021177;28;20211;-75
2023/01/14 05:05:10;;;;;;;3.55;1.90;;;4.80;99.90;;;;;;5027194;28;20204;-73
2023/01/14 05:07:36;;;;;;;4.05;1.67;;;4.80;99.90;;;;;;5022892;28;20173;-73
2023/01/14 05:10:02;;;;;;;2.67;1.30;;;4.80;99.90;;;;;;5026666;28;20177;-72
2023/01/14 05:12:27;;;;;;;3.00;1.30;;;4.60;99.90;;;;;;5026591;28;20216;-73
2023/01/14 05:14:53;;;;;;;3.65;1.30;;;4.70;99.90;;;;;;5021858;28;20177;-72
2023/01/14 05:17:18;;;;;;;3.17;1.50;;;4.80;99.90;;;;;;5030568;28;20184;-73
2023/01/14 05:19:44;;;;;;;1.02;1.02;;;4.80;99.90;;;;;;5019730;28;20652;-73
2023/01/14 05:22:09;;;;;;;1.30;1.00;;;4.90;99.90;;;;;;5024705;28;20177;-73
2023/01/14 05:24:35;;;;;;;2.38;1.10;;;5.00;99.90;;;;;;5026264;28;20694;-72
2023/01/14 05:27:01;;;;;;;6.85;1.52;;;5.00;99.90;;;;;;5030373;28;20251;-73
2023/01/14 05:29:26;;;;;;;4.18;1.60;;;4.90;99.90;;;;;;5028557;28;20184;-73
2023/01/14 05:31:52;;;;;;;3.92;1.55;;;4.90;99.90;;;;;;5026963;28;20173;-75
2023/01/14 05:34:18;;;;;;;3.97;1.42;;;4.90;99.90;;;;;;5022685;28;20246;-72
2023/01/14 05:36:44;;;;;;;5.78;1.40;;;4.80;99.90;;;;;;5027545;28;20180;-76
2023/01/14 05:39:10;;;;;;;2.92;1.23;;;4.80;99.90;;;;;;5030089;28;20185;-76
2023/01/14 05:45:37;;;;;;;2.40;1.30;;;4.70;99.90;;;;;;5027382;28;20211;-73
2023/01/14 05:47:05;;;;;;;2.08;1.60;;;4.80;99.90;;;;;;5022445;28;20191;-72
2023/01/14 05:49:30;;;;;;;1.50;1.38;;;4.80;99.90;;;;;;5026321;28;20651;-73
2023/01/14 05:51:56;;;;;;;3.00;1.60;;;4.80;99.90;;;;;;5018712;28;20247;-76
2023/01/14 05:54:22;;;;;;;5.63;1.92;;;4.70;99.90;;;;;;5024226;28;20173;-73
2023/01/14 05:56:47;;;;;;;2.08;1.60;;;4.80;99.90;;;;;;5027796;28;20177;-73
2023/01/14 05:59:13;;;;;;;4.80;1.30;;;4.80;99.90;;;;;;5005252;28;20541;-72
2023/01/14 06:07:07;;;;;;;3.00;1.60;;;4.70;99.90;;;;;;5010492;28;20188;-73
2023/01/14 06:09:33;;;;;;;0.85;0.85;;;4.70;99.90;;;;;;5011340;28;20177;-75
2023/01/14 06:12:02;;;;;;;1.75;1.23;;;4.70;99.90;;;;;;5008096;28;20189;-75
2023/01/14 06:14:30;;;;;;;1.70;1.40;;;4.70;99.90;;;;;;5022294;28;20538;-73
2023/01/14 06:16:57;;;;;;;2.50;1.48;;;4.70;99.90;;;;;;5018763;28;20173;-73
2023/01/14 06:19:23;;;;;;;2.25;1.20;;;4.80;99.90;;;;;;5010185;28;20200;-72
2023/01/14 06:21:49;;;;;;;1.27;0.82;;;4.60;99.90;;;;;;5018250;28;20748;-74
2023/01/14 06:24:15;;;;;;;4.53;1.70;;;4.60;99.90;;;;;;5024386;28;20204;-75
2023/01/14 06:26:41;;;;;;;1.90;1.70;;;4.60;99.90;;;;;;5026288;28;20185;-74
2023/01/14 06:29:09;;;;;;;2.67;1.40;;;4.60;99.90;;;;;;5012842;28;20471;-73
2023/01/14 06:31:37;;;;;;;1.95;1.60;;;4.60;99.90;;;;;;5016032;28;20623;-74
2023/01/14 06:34:03;;;;;;;3.72;2.10;;;4.50;99.90;;;;;;5018979;28;20204;-74
2023/01/14 06:36:30;;;;;;;1.63;1.52;;;4.40;99.90;;;;;;5003567;28;20178;-74
2023/01/14 06:38:56;;;;;;;2.63;2.00;;;4.50;99.90;;;;;;5004940;28;20189;-75
2023/01/14 06:41:22;;;;;;;5.35;2.22;;;4.40;99.90;;;;;;5006293;28;20201;-73
2023/01/14 06:43:48;;;;;;;3.38;1.58;;;4.40;99.90;;;;;;5015393;28;20194;-73
2023/01/14 06:46:15;;;;;;;6.40;2.45;;;4.40;99.90;;;;;;5006323;28;20243;-74
2023/01/14 06:48:42;;;;;;;4.43;2.03;;;4.40;99.90;;;;;;5014079;28;20178;-76
2023/01/14 06:51:11;;;;;;;2.38;1.90;;;4.40;99.90;;;;;;5019912;28;20204;-76
2023/01/14 06:53:37;;;;;;;1.60;1.50;;;4.40;99.90;;;;;;5020973;28;20275;-76
2023/01/14 06:56:05;;;;;;;2.58;1.48;;;4.30;99.90;;;;;;5017573;28;20212;-76
2023/01/14 06:58:31;;;;;;;1.98;1.80;;;4.20;99.90;;;;;;5009175;28;20240;-76
2023/01/14 07:00:57;;;;;;;2.35;1.02;;;4.10;99.90;;;;;;5007845;28;20232;-75
2023/01/14 07:03:23;;;;;;;1.08;1.08;;;4.10;99.90;;;;;;5009527;28;20652;-74
2023/01/14 07:05:49;;;;;;;3.03;1.50;;;4.20;99.90;;;;;;5006593;28;20207;-74
2023/01/14 07:08:15;;;;;;;2.70;1.27;;;4.30;99.90;;;;;;5003363;28;20169;-75
2023/01/14 07:10:40;;;;;;;1.98;1.80;;;4.20;99.90;;;;;;5022267;28;20173;-79
2023/01/14 07:13:06;;;;;;;3.00;1.90;;;4.30;99.90;;;;;;5015660;28;20290;-76
2023/01/14 07:15:31;;;;;;;4.68;1.70;;;4.40;99.90;;;;;;5018489;28;20184;-74
2023/01/14 07:17:57;;;;;;;1.58;1.48;;;4.40;99.90;;;;;;5022315;28;20251;-74
2023/01/14 07:20:22;;;;;;;4.97;2.05;;;4.40;99.90;;;;;;5019747;28;20243;-75
2023/01/14 07:22:48;;;;;;;1.17;1.08;;;4.40;99.90;;;;;;5011656;28;20224;-74
2023/01/14 07:25:14;;;;;;;3.70;1.67;;;4.40;99.90;;;;;;5021350;28;20193;-75
2023/01/14 07:27:39;;;;;;;3.42;1.40;;;4.50;99.90;;;;;;5024831;28;20263;-74
2023/01/14 07:30:06;;;;;;;1.17;1.10;;;4.50;99.90;;;;;;5026008;28;20189;-73
2023/01/14 07:32:32;;;;;;;1.40;1.17;;;4.50;99.90;;;;;;5010447;28;20206;-74
2023/01/14 07:34:58;;;;;;;1.75;1.40;;;4.60;99.90;;;;;;5007606;28;20574;-75
2023/01/14 07:37:23;;;;;;;1.40;1.30;;;4.60;99.90;;;;;;5009115;28;20181;-75
2023/01/14 07:39:49;;;;;;;1.45;1.13;;;4.60;99.90;;;;;;5012769;28;20295;-73
2023/01/14 07:42:17;;;;;;;2.22;1.60;;;4.50;99.90;;;;;;5017720;28;20711;-74
2023/01/14 07:44:43;;;;;;;2.55;1.40;;;4.50;99.90;;;;;;5022701;28;20308;-74
2023/01/14 07:47:13;;;;;;;2.60;1.73;;;4.60;99.90;;;;;;5015685;28;20178;-75
2023/01/14 07:49:41;;;;;;;2.75;1.40;;;4.50;99.90;;;;;;5011976;28;20200;-74
2023/01/14 07:52:08;;;;;;;2.75;1.73;;;4.60;99.90;;;;;;5017684;28;20189;-75
2023/01/14 07:54:33;;;;;;;2.72;1.40;;;4.60;99.90;;;;;;5019807;28;20185;-75
2023/01/14 07:56:59;;;;;;;1.90;1.70;;;4.70;99.90;;;;;;5021489;28;20268;-74
2023/01/14 07:59:25;;;;;;;1.63;1.30;;;4.80;99.90;;;;;;5018358;28;20193;-75
2023/01/14 08:01:50;;;;;;;3.50;1.45;;;5.00;99.90;;;;;;5017563;28;20192;-74
2023/01/14 08:04:17;;;;;;;2.22;1.27;;;5.10;99.90;;;;;;5022694;28;20343;-74
2023/01/14 08:06:43;;;;;;;1.45;1.38;;;5.20;99.90;;;;;;5012638;28;20174;-77
2023/01/14 08:09:09;;;;;;;1.58;1.40;;;5.30;99.90;;;;;;5014643;28;20185;-75
2023/01/14 08:11:36;;;;;;;2.38;1.05;;;5.50;99.90;;;;;;5015700;28;20173;-75
2023/01/14 08:14:02;;;;;;;2.20;1.50;;;5.70;99.90;;;;;;5023976;28;20196;-77
2023/01/14 08:16:28;;;;;;;2.10;1.52;;;5.90;99.90;;;;;;5020014;28;20231;-76
2023/01/14 08:18:53;;;;;;;1.70;1.52;;;6.00;99.90;;;;;;5026600;28;20662;-76
2023/01/14 08:21:19;;;;;;;1.50;1.40;;;6.10;99.90;;;;;;5020430;28;20208;-76
2023/01/14 08:23:44;;;;;;;2.63;1.30;;;6.10;99.90;;;;;;5019094;28;20276;-76
2023/01/14 08:26:12;;;;;;;2.38;1.10;;;6.10;99.90;;;;;;5012749;28;20567;-75
2023/01/14 08:28:39;;;;;;;2.90;1.30;;;6.20;99.90;;;;;;5007612;28;20185;-75
2023/01/14 08:31:12;;;;;;;3.35;1.55;;;6.30;99.90;;;;;;5014748;28;20193;-76
2023/01/14 08:33:42;;;;;;;2.55;1.40;;;6.30;99.90;;;;;;5015676;28;20209;-75
2023/01/14 08:36:13;;;;;;;1.40;1.30;;;6.30;99.90;;;;;;5024305;28;20279;-75
2023/01/14 08:38:41;;;;;;;2.17;1.70;;;6.30;99.90;;;;;;5022049;28;20186;-74
2023/01/14 08:41:09;;;;;;;2.75;1.58;;;6.30;99.90;;;;;;5011982;28;20581;-75
2023/01/14 08:43:36;;;;;;;3.60;1.23;;;6.30;99.90;;;;;;5019101;28;20335;-74
2023/01/14 08:46:02;;;;;;;2.63;1.55;;;6.30;99.90;;;;;;5018829;28;20195;-75
2023/01/14 08:48:29;;;;;;;2.40;1.75;;;6.30;99.90;;;;;;5018968;28;20181;-74
2023/01/14 08:51:00;;;;;;;2.45;1.40;;;6.20;99.90;;;;;;5022206;28;20307;-74
2023/01/14 08:53:27;;;;;;;2.35;1.60;;;6.20;99.90;;;;;;5017268;28;20208;-74
2023/01/14 08:55:57;;;;;;;2.45;1.50;;;6.10;99.90;;;;;;5012538;28;20644;-74
2023/01/14 08:58:24;;;;;;;2.58;2.10;;;6.00;99.90;;;;;;5028169;28;20554;-76
2023/01/14 09:00:53;;;;;;;3.67;1.50;;;6.00;99.90;;;;;;5017727;28;20204;-76
2023/01/14 09:03:19;;;;;;;3.17;1.58;;;5.90;99.90;;;;;;5030467;28;20201;-76
2023/01/14 09:05:44;;;;;;;3.05;1.30;;;5.80;99.90;;;;;;5020378;28;20189;-76
2023/01/14 09:19:11;;;;;;;4.30;1.60;;;6.60;99.90;;;;;;5017985;28;20553;-76
2023/01/14 09:21:37;;;;;;;2.00;1.35;;;6.80;99.90;;;;;;5027824;28;20283;-76
2023/01/14 09:24:03;;;;;;;1.92;1.30;;;7.10;99.90;;;;;;5030112;28;20571;-76
2023/01/14 09:26:28;;;;;;;3.08;1.50;;;7.70;99.90;;;;;;5026412;28;20176;-76
2023/01/14 09:28:54;;;;;;;1.42;1.10;;;8.60;99.90;;;;;;5022258;28;20211;-76
2023/01/14 09:31:20;;;;;;;1.48;1.33;;;9.80;99.90;;;;;;5021870;28;20181;-76
2023/01/14 09:33:45;;;;;;;1.80;1.70;;;11.60;99.90;;;;;;5018115;28;20211;-76
2023/01/14 09:36:11;;;;;;;2.28;1.33;;;13.10;99.90;;;;;;5024373;28;20176;-76
2023/01/14 09:38:36;;;;;;;3.90;1.88;;;14.20;99.90;;;;;;5020212;28;20229;-76
2023/01/14 09:41:02;;;;;;;1.52;1.42;;;15.00;99.90;;;;;;5019950;28;20204;-76
2023/01/14 09:43:30;;;;;;;1.33;0.98;;;15.60;99.20;;;;;;5025107;28;20354;-76
2023/01/14 09:45:59;;;;;;;1.95;1.48;;;16.10;96.60;;;;;;5018742;28;20181;-76
2023/01/14 09:48:26;;;;;;;3.65;1.40;;;16.50;94.90;;;;;;5024349;28;20187;-76
2023/01/14 09:51:09;;;;;;;4.53;2.13;;;17.50;93.30;;;;;;5025900;28;20177;-76
2023/01/14 09:53:50;;;;;;;5.30;1.50;;;18.60;90.10;;;;;;5026125;28;20667;-76
2023/01/14 09:56:31;;;;;;;2.42;1.15;;;19.30;82.50;;;;;;5018794;28;20710;-76
2023/01/14 09:59:10;;;;;;;2.08;1.40;;;19.30;80.30;;;;;;5020119;28;20569;-76
2023/01/14 10:01:49;;;;;;;5.15;1.30;;;19.60;77.10;;;;;;5023025;28;20302;-77
2023/01/14 10:05:02;;;;;;;2.75;1.05;;;19.00;76.10;;;;;;5025279;28;21135;-77
2023/01/14 10:07:29;;;;;;;3.97;1.50;;;18.80;76.30;;;;;;5025050;28;20226;-77
2023/01/14 10:10:00;;;;;;;4.18;1.60;;;19.30;75.30;;;;;;5019221;28;20232;-77
2023/01/14 10:12:31;;;;;;;5.18;2.03;;;20.40;72.60;;;;;;5016908;28;20269;-77
2023/01/14 10:15:13;;;;;;;3.70;1.85;;;20.50;69.20;;;;;;5012201;28;20169;-77
2023/01/14 10:17:43;;;;;;;2.55;1.33;;;20.30;69.40;;;;;;5019265;28;20180;-78
2023/01/14 10:20:43;;;;;;;2.75;1.73;;;19.70;69.60;;;;;;5012616;28;20181;-77
2023/01/14 10:23:17;;;;;;;5.20;1.60;;;19.30;72.00;;;;;;5021105;28;20215;-77
2023/01/14 10:25:48;;;;;;;3.30;1.63;;;19.40;72.60;;;;;;5023412;28;20165;-77
2023/01/14 10:28:17;;;;;;;1.92;1.60;;;18.90;71.20;;;;;;5025926;28;20185;-77
2023/01/14 10:30:44;;;;;;;2.03;1.35;;;18.00;71.60;;;;;;5016501;28;20692;-77
2023/01/14 10:33:14;;;;;;;2.88;1.50;;;16.90;75.40;;;;;;5022989;28;20749;-77
2023/01/14 10:35:44;;;;;;;5.35;1.77;;;16.20;76.90;;;;;;5013733;28;20216;-78
2023/01/14 10:38:21;;;;;;;3.55;1.60;;;15.40;79.80;;;;;;5025846;28;20360;-78
2023/01/14 10:40:49;;;;;;;4.18;1.60;;;14.60;82.80;;;;;;5029954;28;20192;-77
2023/01/14 10:43:32;;;;;;;2.08;1.50;;;14.30;84.60;;;;;;5022610;28;20196;-77
2023/01/14 10:45:58;;;;;;;4.55;1.98;;;14.30;87.10;;;;;;5021587;28;20176;-77
2023/01/14 10:48:25;;;;;;;4.13;1.65;;;14.20;87.60;;;;;;5022399;28;20165;-77
2023/01/14 10:50:52;;;;;;;4.05;1.40;;;14.00;86.60;;;;;;5020931;28;20177;-77
2023/01/14 10:53:23;;;;;;;4.00;1.90;;;13.60;87.00;;;;;;5017377;28;20205;-77
2023/01/14 10:55:58;;;;;;;4.88;1.83;;;13.20;89.50;;;;;;5021556;28;20170;-77
2023/01/14 10:58:31;;;;;;;4.05;1.73;;;12.80;90.20;;;;;;5023096;28;20191;-77
2023/01/14 11:01:05;;;;;;;3.25;1.50;;;12.50;91.20;;;;;;5020398;28;20228;-77
2023/01/14 11:03:48;;;;;;;3.45;1.73;;;12.30;92.00;;;;;;5028539;28;20208;-77
2023/01/14 11:06:16;;;;;;;3.45;1.48;;;12.20;92.40;;;;;;5023339;28;20188;-77
2023/01/14 11:08:50;;;;;;;1.83;1.50;;;12.10;92.70;;;;;;5023480;28;20280;-78
2023/01/14 11:11:19;;;;;;;3.17;1.42;;;12.10;93.40;;;;;;5012022;28;20220;-77
2023/01/14 11:13:50;;;;;;;2.42;1.55;;;11.90;93.60;;;;;;5028253;28;20193;-77
2023/01/14 11:16:24;;;;;;;1.65;1.27;;;11.80;94.00;;;;;;5022228;28;20244;-77
2023/01/14 11:18:59;;;;;;;3.90;1.40;;;11.50;94.10;;;;;;5019172;28;20204;-77
2023/01/14 11:21:27;;;;;;;2.78;1.58;;;11.40;95.00;;;;;;5020986;28;20683;-77
2023/01/14 11:24:17;;;;;;;3.03;1.45;;;11.50;95.20;;;;;;5016927;28;20225;-77
2023/01/14 11:26:43;;;;;;;3.58;1.60;;;11.40;95.90;;;;;;5021727;28;20180;-78
2023/01/14 11:29:20;;;;;;;6.80;1.90;;;11.40;96.20;;;;;;5025202;28;20195;-77
2023/01/14 11:31:47;;;;;;;2.10;1.50;;;11.30;96.50;;;;;;5022475;28;20188;-77
2023/01/14 11:34:49;;;;;;;2.95;1.30;;;11.20;96.50;;;;;;5015927;28;20205;-77
2023/01/14 11:37:24;;;;;;;2.08;1.40;;;10.80;97.60;;;;;;5027495;28;20253;-77
2023/01/14 11:39:56;;;;;;;4.65;1.90;;;10.70;98.50;;;;;;5012160;28;20188;-77
2023/01/14 11:42:31;;;;;;;8.57;2.22;;;10.70;99.50;;;;;;5020851;28;20201;-77
2023/01/14 11:44:58;;;;;;;4.15;1.90;;;10.80;99.10;;;;;;5019614;28;20315;-77
2023/01/14 11:47:25;;;;;;;2.35;1.48;;;10.90;99.40;;;;;;5019984;28;20182;-78
2023/01/14 11:50:09;;;;;;;4.80;2.22;;;11.00;99.50;;;;;;5027237;28;20183;-77
2023/01/14 11:52:34;;;;;;;3.83;2.10;;;11.10;99.90;;;;;;5025112;28;20226;-77
2023/01/14 11:55:00;;;;;;;3.88;2.30;;;11.20;99.90;;;;;;5024291;28;20619;-77
2023/01/14 11:57:26;;;;;;;4.90;1.80;;;11.20;99.90;;;;;;5019871;28;20245;-77
2023/01/14 11:59:53;;;;;;;1.90;1.55;;;11.30;99.90;;;;;;5023606;28;20536;-77
2023/01/14 12:02:21;;;;;;;1.52;1.30;;;11.30;99.90;;;;;;5025161;28;20209;-78
2023/01/14 12:05:05;;;;;;;4.13;2.42;;;11.30;99.30;;;;;;5017802;28;20184;-77
2023/01/14 12:07:52;;;;;;;2.65;1.40;;;11.20;99.90;;;;;;5019992;28;20256;-77
2023/01/14 12:10:19;;;;;;;3.60;1.45;;;11.10;99.90;;;;;;5028367;28;20246;-77
2023/01/14 12:18:38;;;;;;;3.55;1.30;;;11.00;99.90;;;;;;5023346;28;20192;-77
2023/01/14 12:21:06;;;;;;;2.47;1.65;;;11.10;99.90;;;;;;5013223;28;20217;-77
2023/01/14 12:23:42;;;;;;;4.80;1.88;;;11.30;99.90;;;;;;5021894;28;20735;-77
2023/01/14 12:26:19;;;;;;;2.53;1.80;;;11.40;99.90;;;;;;5028647;28;20187;-77
2023/01/14 12:28:50;;;;;;;5.75;1.75;;;11.40;99.90;;;;;;5028193;28;20211;-77
2023/01/14 12:31:52;;;;;;;2.45;1.50;;;11.20;99.90;;;;;;5029621;28;20180;-77
2023/01/14 12:34:38;;;;;;;1.85;1.42;;;11.20;99.90;;;;;;5017656;28;20235;-77
2023/01/14 12:37:13;;;;;;;2.03;1.25;;;11.20;99.90;;;;;;5024397;28;20184;-77
2023/01/14 12:45:44;;;;;;;2.78;1.80;;;11.10;99.90;;;;;;5020818;28;20226;-77
2023/01/14 12:48:19;;;;;;;4.97;2.03;;;10.70;99.90;;;;;;5022485;28;20342;-77
2023/01/14 12:50:44;;;;;;;4.45;2.10;;;10.70;99.90;;;;;;5021780;28;20206;-77
2023/01/14 12:53:22;;;;;;;5.45;2.00;;;10.70;99.90;;;;;;5027202;28;20200;-77
2023/01/14 12:55:49;;;;;;;4.60;1.85;;;10.80;99.90;;;;;;5020117;28;20183;-77
2023/01/14 12:58:21;;;;;;;4.25;2.15;;;11.00;99.90;;;;;;5027888;28;20478;-77
2023/01/14 13:00:56;;;;;;;4.85;2.33;;;11.10;99.90;;;;;;5014785;28;20208;-77
2023/01/14 13:03:31;;;;;;;2.80;1.80;;;11.30;99.90;;;;;;5028424;28;20192;-77
2023/01/14 13:05:57;;;;;;;3.75;1.85;;;11.40;99.90;;;;;;5014197;28;20621;-78
2023/01/14 13:08:33;;;;;;;4.32;2.00;;;11.50;99.90;;;;;;5023284;28;20314;-77
2023/01/14 13:11:11;;;;;;;4.93;2.22;;;11.50;99.90;;;;;;5010964;28;20173;-77
2023/01/14 13:13:41;;;;;;;5.45;2.40;;;11.40;99.90;;;;;;5023497;28;20240;-77
2023/01/14 13:16:28;;;;;;;2.15;1.65;;;11.40;99.90;;;;;;5025781;28;20184;-77
2023/01/14 13:18:59;;;;;;;4.38;1.77;;;11.30;99.90;;;;;;5017463;28;20207;-78
2023/01/14 13:21:54;;;;;;;4.18;1.73;;;11.20;99.90;;;;;;5023497;28;20209;-77
2023/01/14 13:24:31;;;;;;;3.08;1.75;;;11.10;99.90;;;;;;5019763;28;20196;-77
2023/01/14 13:27:00;;;;;;;3.22;1.90;;;11.20;99.90;;;;;;5018457;28;20230;-77
2023/01/14 13:29:31;;;;;;;6.00;1.83;;;11.10;99.90;;;;;;5020886;28;20187;-77
2023/01/14 13:31:58;;;;;;;3.20;1.95;;;10.90;99.90;;;;;;5013729;28;20212;-77
2023/01/14 13:34:26;;;;;;;2.78;2.30;;;10.80;99.90;;;;;;5024419;28;20623;-77
2023/01/14 13:37:00;;;;;;;3.45;2.10;;;10.90;99.90;;;;;;5029108;28;20176;-77
2023/01/14 13:39:31;;;;;;;4.75;2.35;;;11.00;99.90;;;;;;5028995;28;20187;-77
2023/01/14 13:41:59;;;;;;;5.82;2.55;;;11.00;99.90;;;;;;5017386;28;20213;-77
2023/01/14 13:44:34;;;;;;;3.55;2.25;;;11.00;99.90;;;;;;5015517;28;20181;-78